sensor_id;sensor_type;location;lat;lon;timestamp;temperature;humidity
5011;DHT22;2524;54.364;10.072;2024-02-21T00:02:18;9.00;99.90
5011;DHT22;2524;54.364;10.072;2024-02-21T00:04:44;9.10;99.90
5011;DHT22;2524;54.364;10.072;2024-02-21T00:07:10;9.00;99.90
5011;DHT22;2524;54.364;10.072;2024-02-21T00:09:35;9.10;99.90
5011;DHT22;2524;54.364;10.072;2024-02-21T00:12:01;9.10;99.90
5011;DHT22;2524;54.364;10.072;2024-02-21T00:14:27;9.10;99.90
5011;DHT22;2524;54.364;10.072;2024-02-21T00:16:52;9.10;99.90
5011;DHT22;2524;54.364;10.072;2024-02-21T00:19:18;9.00;99.90
5011;DHT22;2524;54.364;10.072;2024-02-21T00:21:43;9.00;99.90
5011;DHT22;2524;54.364;10.072;2024-02-21T00:24:09;9.10;99.90
5011;DHT22;2524;54.364;10.072;2024-02-21T00:26:34;9.10;99.90
5011;DHT22;2524;54.364;10.072;2024-02-21T00:29:00;9.20;99.90
5011;DHT22;2524;54.364;10.072;2024-02-21T00:31:25;9.10;99.90
5011;DHT22;2524;54.364;10.072;2024-02-21T00:33:51;9.30;99.90
5011;DHT22;2524;54.364;10.072;2024-02-21T00:36:16;9.20;99.90
5011;DHT22;2524;54.364;10.072;2024-02-21T00:38:42;9.20;99.90
5011;DHT22;2524;54.364;10.072;2024-02-21T00:41:08;9.20;99.90
5011;DHT22;2524;54.364;10.072;2024-02-21T00:43:33;9.20;99.90
5011;DHT22;2524;54.364;10.072;2024-02-21T00:45:59;9.20;99.90
5011;DHT22;2524;54.364;10.072;2024-02-21T00:48:24;9.20;99.90
5011;DHT22;2524;54.364;10.072;2024-02-21T00:50:50;9.20;99.90
5011;DHT22;2524;54.364;10.072;2024-02-21T00:53:16;9.30;99.90
5011;DHT22;2524;54.364;10.072;2024-02-21T00:55:41;9.20;99.90
5011;DHT22;2524;54.364;10.072;2024-02-21T00:58:08;9.30;99.90
5011;DHT22;2524;54.364;10.072;2024-02-21T01:00:34;9.40;99.90
5011;DHT22;2524;54.364;10.072;2024-02-21T01:02:59;9.30;99.90
5011;DHT22;2524;54.364;10.072;2024-02-21T01:05:25;9.30;99.90
5011;DHT22;2524;54.364;10.072;2024-02-21T01:07:52;9.30;99.90
5011;DHT22;2524;54.364;10.072;2024-02-21T01:10:18;9.30;99.90
5011;DHT22;2524;54.364;10.072;2024-02-21T01:12:43;9.30;99.90
5011;DHT22;2524;54.364;10.072;2024-02-21T01:15:09;9.30;99.90
5011;DHT22;2524;54.364;10.072;2024-02-21T01:17:35;9.40;99.90
5011;DHT22;2524;54.364;10.072;2024-02-21T01:20:02;9.30;99.90
5011;DHT22;2524;54.364;10.072;2024-02-21T01:22:27;9.30;99.90
5011;DHT22;2524;54.364;10.072;2024-02-21T01:24:54;9.30;99.90
5011;DHT22;2524;54.364;10.072;2024-02-21T01:27:19;9.40;99.90
5011;DHT22;2524;54.364;10.072;2024-02-21T01:29:45;9.30;99.90
5011;DHT22;2524;54.364;10.072;2024-02-21T01:32:13;9.30;99.90
5011;DHT22;2524;54.364;10.072;2024-02-21T01:34:38;9.30;99.90
5011;DHT22;2524;54.364;10.072;2024-02-21T01:37:04;9.30;99.90
5011;DHT22;2524;54.364;10.072;2024-02-21T01:39:32;9.30;99.90
5011;DHT22;2524;54.364;10.072;2024-02-21T01:41:58;9.30;99.90
5011;DHT22;2524;54.364;10.072;2024-02-21T01:44:24;9.30;99.90
5011;DHT22;2524;54.364;10.072;2024-02-21T01:46:50;9.30;99.90
5011;DHT22;2524;54.364;10.072;2024-02-21T01:49:17;9.30;99.90
5011;DHT22;2524;54.364;10.072;2024-02-21T01:51:42;9.40;99.90
5011;DHT22;2524;54.364;10.072;2024-02-21T01:54:08;9.40;99.90
5011;DHT22;2524;54.364;10.072;2024-02-21T01:56:35;9.30;99.90
5011;DHT22;2524;54.364;10.072;2024-02-21T01:59:01;9.20;99.90
5011;DHT22;2524;54.364;10.072;2024-02-21T02:01:26;9.40;99.90
5011;DHT22;2524;54.364;10.072;2024-02-21T02:03:53;9.30;99.90
5011;DHT22;2524;54.364;10.072;2024-02-21T02:06:20;9.30;99.90
5011;DHT22;2524;54.364;10.072;2024-02-21T02:08:46;9.30;99.90
5011;DHT22;2524;54.364;10.072;2024-02-21T02:11:13;9.30;99.90
5011;DHT22;2524;54.364;10.072;2024-02-21T02:13:39;9.30;99.90
5011;DHT22;2524;54.364;10.072;2024-02-21T02:16:05;9.30;99.90
5011;DHT22;2524;54.364;10.072;2024-02-21T02:18:31;9.30;99.90
5011;DHT22;2524;54.364;10.072;2024-02-21T02:20:57;9.30;99.90
5011;DHT22;2524;54.364;10.072;2024-02-21T02:23:33;9.30;99.90
5011;DHT22;2524;54.364;10.072;2024-02-21T02:25:58;9.30;99.90
5011;DHT22;2524;54.364;10.072;2024-02-21T02:28:24;9.30;99.90
5011;DHT22;2524;54.364;10.072;2024-02-21T02:30:50;9.30;99.90
5011;DHT22;2524;54.364;10.072;2024-02-21T02:33:16;9.30;99.90
5011;DHT22;2524;54.364;10.072;2024-02-21T02:35:44;9.40;99.90
5011;DHT22;2524;54.364;10.072;2024-02-21T02:38:10;9.30;99.90
5011;DHT22;2524;54.364;10.072;2024-02-21T02:40:38;9.30;99.90
5011;DHT22;2524;54.364;10.072;2024-02-21T02:43:04;9.30;99.90
5011;DHT22;2524;54.364;10.072;2024-02-21T02:45:29;9.40;99.90
5011;DHT22;2524;54.364;10.072;2024-02-21T02:47:59;9.30;99.90
5011;DHT22;2524;54.364;10.072;2024-02-21T02:50:25;9.30;99.90
5011;DHT22;2524;54.364;10.072;2024-02-21T02:52:51;9.30;99.90
5011;DHT22;2524;54.364;10.072;2024-02-21T02:55:18;9.30;99.90
5011;DHT22;2524;54.364;10.072;2024-02-21T02:57:44;9.20;99.90
5011;DHT22;2524;54.364;10.072;2024-02-21T03:00:13;9.30;99.90
5011;DHT22;2524;54.364;10.072;2024-02-21T03:02:41;9.20;99.90
5011;DHT22;2524;54.364;10.072;2024-02-21T03:05:15;9.30;99.90
5011;DHT22;2524;54.364;10.072;2024-02-21T03:07:41;9.30;99.90
5011;DHT22;2524;54.364;10.072;2024-02-21T03:10:08;9.20;99.90
5011;DHT22;2524;54.364;10.072;2024-02-21T03:12:33;9.30;99.90
5011;DHT22;2524;54.364;10.072;2024-02-21T03:14:59;9.20;99.90
5011;DHT22;2524;54.364;10.072;2024-02-21T03:17:25;9.30;99.90
5011;DHT22;2524;54.364;10.072;2024-02-21T03:19:52;9.30;99.90
5011;DHT22;2524;54.364;10.072;2024-02-21T03:22:18;9.30;99.90
5011;DHT22;2524;54.364;10.072;2024-02-21T03:24:45;9.20;99.90
5011;DHT22;2524;54.364;10.072;2024-02-21T03:27:10;9.20;99.90
5011;DHT22;2524;54.364;10.072;2024-02-21T03:29:36;9.20;99.90
5011;DHT22;2524;54.364;10.072;2024-02-21T03:32:02;9.20;99.90
5011;DHT22;2524;54.364;10.072;2024-02-21T03:34:27;9.20;99.90
5011;DHT22;2524;54.364;10.072;2024-02-21T03:36:53;9.20;99.90
5011;DHT22;2524;54.364;10.072;2024-02-21T03:39:18;9.20;99.90
5011;DHT22;2524;54.364;10.072;2024-02-21T03:41:44;9.30;99.90
5011;DHT22;2524;54.364;10.072;2024-02-21T03:44:09;9.10;99.90
5011;DHT22;2524;54.364;10.072;2024-02-21T03:46:35;9.10;99.90
5011;DHT22;2524;54.364;10.072;2024-02-21T03:49:01;9.10;99.90
5011;DHT22;2524;54.364;10.072;2024-02-21T03:51:26;9.20;99.90
5011;DHT22;2524;54.364;10.072;2024-02-21T03:53:52;9.10;99.90
5011;DHT22;2524;54.364;10.072;2024-02-21T03:56:18;9.20;99.90
5011;DHT22;2524;54.364;10.072;2024-02-21T03:58:43;9.20;99.90
5011;DHT22;2524;54.364;10.072;2024-02-21T04:01:09;9.10;99.90
5011;DHT22;2524;54.364;10.072;2024-02-21T04:03:34;9.00;99.90
5011;DHT22;2524;54.364;10.072;2024-02-21T04:06:00;8.90;99.90
5011;DHT22;2524;54.364;10.072;2024-02-21T04:08:25;8.90;99.90
5011;DHT22;2524;54.364;10.072;2024-02-21T04:10:51;8.90;99.90
5011;DHT22;2524;54.364;10.072;2024-02-21T04:13:17;8.90;99.90
5011;DHT22;2524;54.364;10.072;2024-02-21T04:15:43;8.90;99.90
5011;DHT22;2524;54.364;10.072;2024-02-21T04:18:09;8.90;99.90
5011;DHT22;2524;54.364;10.072;2024-02-21T04:20:34;8.90;99.90
5011;DHT22;2524;54.364;10.072;2024-02-21T04:23:00;9.00;99.90
5011;DHT22;2524;54.364;10.072;2024-02-21T04:25:26;8.80;99.90
5011;DHT22;2524;54.364;10.072;2024-02-21T04:27:52;8.80;99.90
5011;DHT22;2524;54.364;10.072;2024-02-21T04:30:18;8.80;99.90
5011;DHT22;2524;54.364;10.072;2024-02-21T04:32:43;8.90;99.90
5011;DHT22;2524;54.364;10.072;2024-02-21T04:35:09;8.80;99.90
5011;DHT22;2524;54.364;10.072;2024-02-21T04:37:34;8.70;99.90
5011;DHT22;2524;54.364;10.072;2024-02-21T04:40:00;8.90;99.90
5011;DHT22;2524;54.364;10.072;2024-02-21T04:42:26;8.90;99.90
5011;DHT22;2524;54.364;10.072;2024-02-21T04:44:51;8.80;99.90
5011;DHT22;2524;54.364;10.072;2024-02-21T04:47:17;8.80;99.90
5011;DHT22;2524;54.364;10.072;2024-02-21T04:49:45;8.70;99.90
5011;DHT22;2524;54.364;10.072;2024-02-21T04:52:11;8.70;99.90
5011;DHT22;2524;54.364;10.072;2024-02-21T04:54:37;8.70;99.90
5011;DHT22;2524;54.364;10.072;2024-02-21T04:57:03;8.70;99.90
5011;DHT22;2524;54.364;10.072;2024-02-21T04:59:28;8.70;99.90
5011;DHT22;2524;54.364;10.072;2024-02-21T05:01:55;8.70;99.90
5011;DHT22;2524;54.364;10.072;2024-02-21T05:04:20;8.70;99.90
5011;DHT22;2524;54.364;10.072;2024-02-21T05:06:46;8.70;99.90
5011;DHT22;2524;54.364;10.072;2024-02-21T05:09:12;8.80;99.90
5011;DHT22;2524;54.364;10.072;2024-02-21T05:11:38;8.70;99.90
5011;DHT22;2524;54.364;10.072;2024-02-21T05:14:04;8.60;99.90
5011;DHT22;2524;54.364;10.072;2024-02-21T05:16:30;8.60;99.90
5011;DHT22;2524;54.364;10.072;2024-02-21T05:18:56;8.60;99.90
5011;DHT22;2524;54.364;10.072;2024-02-21T05:21:25;8.60;99.90
5011;DHT22;2524;54.364;10.072;2024-02-21T05:23:51;8.60;99.90
5011;DHT22;2524;54.364;10.072;2024-02-21T05:26:25;8.60;99.90
5011;DHT22;2524;54.364;10.072;2024-02-21T05:28:50;8.60;99.90
5011;DHT22;2524;54.364;10.072;2024-02-21T05:31:17;8.70;99.90
5011;DHT22;2524;54.364;10.072;2024-02-21T05:33:45;8.60;99.90
5011;DHT22;2524;54.364;10.072;2024-02-21T05:36:12;8.50;99.90
5011;DHT22;2524;54.364;10.072;2024-02-21T05:38:37;8.50;99.90
5011;DHT22;2524;54.364;10.072;2024-02-21T05:41:03;8.50;99.90
5011;DHT22;2524;54.364;10.072;2024-02-21T05:43:31;8.50;99.90
5011;DHT22;2524;54.364;10.072;2024-02-21T05:45:57;8.50;99.90
5011;DHT22;2524;54.364;10.072;2024-02-21T05:48:23;8.60;99.90
5011;DHT22;2524;54.364;10.072;2024-02-21T05:50:49;8.60;99.90
5011;DHT22;2524;54.364;10.072;2024-02-21T05:53:16;8.50;99.90
5011;DHT22;2524;54.364;10.072;2024-02-21T05:55:42;8.50;99.90
5011;DHT22;2524;54.364;10.072;2024-02-21T05:58:07;8.50;99.90
5011;DHT22;2524;54.364;10.072;2024-02-21T06:00:37;8.60;99.90
5011;DHT22;2524;54.364;10.072;2024-02-21T06:03:02;8.70;99.90
5011;DHT22;2524;54.364;10.072;2024-02-21T06:05:28;8.50;99.90
5011;DHT22;2524;54.364;10.072;2024-02-21T06:07:54;8.50;99.90
5011;DHT22;2524;54.364;10.072;2024-02-21T06:10:19;8.50;99.90
5011;DHT22;2524;54.364;10.072;2024-02-21T06:12:45;8.40;99.90
5011;DHT22;2524;54.364;10.072;2024-02-21T06:15:10;8.40;99.90
5011;DHT22;2524;54.364;10.072;2024-02-21T06:17:36;8.40;99.90
5011;DHT22;2524;54.364;10.072;2024-02-21T06:20:02;8.40;99.90
5011;DHT22;2524;54.364;10.072;2024-02-21T06:22:27;8.30;99.90
5011;DHT22;2524;54.364;10.072;2024-02-21T06:24:53;8.30;99.90
5011;DHT22;2524;54.364;10.072;2024-02-21T06:27:20;8.20;99.90
5011;DHT22;2524;54.364;10.072;2024-02-21T06:29:45;8.20;99.90
5011;DHT22;2524;54.364;10.072;2024-02-21T06:32:12;8.20;99.90
5011;DHT22;2524;54.364;10.072;2024-02-21T06:34:38;8.20;99.90
5011;DHT22;2524;54.364;10.072;2024-02-21T06:37:03;8.10;99.90
5011;DHT22;2524;54.364;10.072;2024-02-21T06:39:29;8.30;99.90
5011;DHT22;2524;54.364;10.072;2024-02-21T06:41:55;8.20;99.90
5011;DHT22;2524;54.364;10.072;2024-02-21T06:44:21;8.20;99.90
5011;DHT22;2524;54.364;10.072;2024-02-21T06:46:47;8.20;99.90
5011;DHT22;2524;54.364;10.072;2024-02-21T06:49:13;8.10;99.90
5011;DHT22;2524;54.364;10.072;2024-02-21T06:51:42;8.10;99.90
5011;DHT22;2524;54.364;10.072;2024-02-21T06:54:08;8.20;99.90
5011;DHT22;2524;54.364;10.072;2024-02-21T06:56:35;8.10;99.90
5011;DHT22;2524;54.364;10.072;2024-02-21T06:59:01;8.10;99.90
5011;DHT22;2524;54.364;10.072;2024-02-21T07:01:28;8.10;99.90
5011;DHT22;2524;54.364;10.072;2024-02-21T07:03:54;8.10;99.90
5011;DHT22;2524;54.364;10.072;2024-02-21T07:06:20;8.10;99.90
5011;DHT22;2524;54.364;10.072;2024-02-21T07:08:45;8.10;99.90
5011;DHT22;2524;54.364;10.072;2024-02-21T07:11:11;8.10;99.90
5011;DHT22;2524;54.364;10.072;2024-02-21T07:13:37;8.10;99.90
5011;DHT22;2524;54.364;10.072;2024-02-21T07:16:03;8.00;99.90
5011;DHT22;2524;54.364;10.072;2024-02-21T07:18:29;8.00;99.90
5011;DHT22;2524;54.364;10.072;2024-02-21T07:20:54;8.00;99.90
5011;DHT22;2524;54.364;10.072;2024-02-21T07:23:21;8.10;99.90
5011;DHT22;2524;54.364;10.072;2024-02-21T07:25:46;8.00;99.90
5011;DHT22;2524;54.364;10.072;2024-02-21T07:28:12;8.10;99.90
5011;DHT22;2524;54.364;10.072;2024-02-21T07:30:39;8.00;99.90
5011;DHT22;2524;54.364;10.072;2024-02-21T07:33:04;8.00;99.90
5011;DHT22;2524;54.364;10.072;2024-02-21T07:35:30;8.00;99.90
5011;DHT22;2524;54.364;10.072;2024-02-21T07:37:55;7.90;99.90
5011;DHT22;2524;54.364;10.072;2024-02-21T07:40:21;8.00;99.90
5011;DHT22;2524;54.364;10.072;2024-02-21T07:42:47;8.00;99.90
5011;DHT22;2524;54.364;10.072;2024-02-21T07:45:13;8.00;99.90
5011;DHT22;2524;54.364;10.072;2024-02-21T07:47:38;7.90;99.90
5011;DHT22;2524;54.364;10.072;2024-02-21T07:50:05;8.00;99.90
5011;DHT22;2524;54.364;10.072;2024-02-21T07:52:32;7.90;99.90
5011;DHT22;2524;54.364;10.072;2024-02-21T07:54:58;7.90;99.90
5011;DHT22;2524;54.364;10.072;2024-02-21T07:57:23;8.00;99.90
5011;DHT22;2524;54.364;10.072;2024-02-21T07:59:49;7.90;99.90
5011;DHT22;2524;54.364;10.072;2024-02-21T08:02:16;7.90;99.90
5011;DHT22;2524;54.364;10.072;2024-02-21T08:04:42;8.10;99.90
5011;DHT22;2524;54.364;10.072;2024-02-21T08:07:08;7.90;99.90
5011;DHT22;2524;54.364;10.072;2024-02-21T08:09:34;7.90;99.90
5011;DHT22;2524;54.364;10.072;2024-02-21T08:12:00;7.90;99.90
5011;DHT22;2524;54.364;10.072;2024-02-21T08:14:25;7.90;99.90
5011;DHT22;2524;54.364;10.072;2024-02-21T08:16:51;7.90;99.90
5011;DHT22;2524;54.364;10.072;2024-02-21T08:19:19;8.10;99.90
5011;DHT22;2524;54.364;10.072;2024-02-21T08:21:45;8.00;99.90
5011;DHT22;2524;54.364;10.072;2024-02-21T08:24:16;8.10;99.90
5011;DHT22;2524;54.364;10.072;2024-02-21T08:26:42;8.10;99.90
5011;DHT22;2524;54.364;10.072;2024-02-21T08:29:10;8.00;99.90
5011;DHT22;2524;54.364;10.072;2024-02-21T08:31:36;8.00;99.90
5011;DHT22;2524;54.364;10.072;2024-02-21T08:34:01;8.20;99.90
5011;DHT22;2524;54.364;10.072;2024-02-21T08:36:33;8.10;99.90
5011;DHT22;2524;54.364;10.072;2024-02-21T08:38:59;8.10;99.90
5011;DHT22;2524;54.364;10.072;2024-02-21T08:41:24;8.10;99.90
5011;DHT22;2524;54.364;10.072;2024-02-21T08:43:51;8.30;99.90
5011;DHT22;2524;54.364;10.072;2024-02-21T08:46:17;8.20;99.90
5011;DHT22;2524;54.364;10.072;2024-02-21T08:48:43;8.30;99.90
5011;DHT22;2524;54.364;10.072;2024-02-21T08:51:12;8.40;99.90
5011;DHT22;2524;54.364;10.072;2024-02-21T08:53:37;8.40;99.90
5011;DHT22;2524;54.364;10.072;2024-02-21T08:56:03;8.30;99.90
5011;DHT22;2524;54.364;10.072;2024-02-21T08:58:29;8.30;99.90
5011;DHT22;2524;54.364;10.072;2024-02-21T09:00:55;8.30;99.90
5011;DHT22;2524;54.364;10.072;2024-02-21T09:03:20;8.40;99.90
5011;DHT22;2524;54.364;10.072;2024-02-21T09:05:46;8.50;99.90
5011;DHT22;2524;54.364;10.072;2024-02-21T09:08:12;8.40;99.90
5011;DHT22;2524;54.364;10.072;2024-02-21T09:10:39;8.40;99.90
5011;DHT22;2524;54.364;10.072;2024-02-21T09:13:05;8.50;99.90
5011;DHT22;2524;54.364;10.072;2024-02-21T09:15:32;8.60;99.90
5011;DHT22;2524;54.364;10.072;2024-02-21T09:17:58;8.50;99.90
5011;DHT22;2524;54.364;10.072;2024-02-21T09:20:24;8.60;99.90
5011;DHT22;2524;54.364;10.072;2024-02-21T09:22:49;8.70;99.90
5011;DHT22;2524;54.364;10.072;2024-02-21T09:25:15;8.60;99.90
5011;DHT22;2524;54.364;10.072;2024-02-21T09:27:44;8.60;99.90
5011;DHT22;2524;54.364;10.072;2024-02-21T09:30:11;8.70;99.90
5011;DHT22;2524;54.364;10.072;2024-02-21T09:32:37;8.80;99.90
5011;DHT22;2524;54.364;10.072;2024-02-21T09:35:04;8.80;99.90
5011;DHT22;2524;54.364;10.072;2024-02-21T09:37:31;8.80;99.90
5011;DHT22;2524;54.364;10.072;2024-02-21T09:39:58;8.90;99.90
5011;DHT22;2524;54.364;10.072;2024-02-21T09:42:41;8.90;99.90
5011;DHT22;2524;54.364;10.072;2024-02-21T09:45:21;8.90;99.90
5011;DHT22;2524;54.364;10.072;2024-02-21T09:48:25;8.90;99.90
5011;DHT22;2524;54.364;10.072;2024-02-21T09:50:55;8.90;99.90
5011;DHT22;2524;54.364;10.072;2024-02-21T09:53:24;8.90;99.90
5011;DHT22;2524;54.364;10.072;2024-02-21T09:55:51;8.90;99.90
5011;DHT22;2524;54.364;10.072;2024-02-21T09:58:19;9.00;99.90
5011;DHT22;2524;54.364;10.072;2024-02-21T10:00:44;8.90;99.90
5011;DHT22;2524;54.364;10.072;2024-02-21T10:03:10;8.90;99.90
5011;DHT22;2524;54.364;10.072;2024-02-21T10:05:37;9.10;99.90
5011;DHT22;2524;54.364;10.072;2024-02-21T10:08:04;9.10;99.90
5011;DHT22;2524;54.364;10.072;2024-02-21T10:10:30;9.10;99.90
5011;DHT22;2524;54.364;10.072;2024-02-21T10:12:56;9.20;99.90
5011;DHT22;2524;54.364;10.072;2024-02-21T10:15:24;9.30;99.90
5011;DHT22;2524;54.364;10.072;2024-02-21T10:17:58;9.50;99.90
5011;DHT22;2524;54.364;10.072;2024-02-21T10:20:24;9.50;99.90
5011;DHT22;2524;54.364;10.072;2024-02-21T10:23:04;9.50;99.90
5011;DHT22;2524;54.364;10.072;2024-02-21T10:25:36;9.60;99.90
5011;DHT22;2524;54.364;10.072;2024-02-21T10:28:08;9.70;99.90
5011;DHT22;2524;54.364;10.072;2024-02-21T10:30:34;9.70;99.90
5011;DHT22;2524;54.364;10.072;2024-02-21T10:33:00;9.80;99.90
5011;DHT22;2524;54.364;10.072;2024-02-21T10:35:30;10.00;99.90
5011;DHT22;2524;54.364;10.072;2024-02-21T10:37:56;9.90;99.90
5011;DHT22;2524;54.364;10.072;2024-02-21T10:40:27;9.90;99.90
5011;DHT22;2524;54.364;10.072;2024-02-21T10:43:02;9.90;99.90
5011;DHT22;2524;54.364;10.072;2024-02-21T10:45:36;9.90;99.90
5011;DHT22;2524;54.364;10.072;2024-02-21T10:48:08;10.00;99.90
5011;DHT22;2524;54.364;10.072;2024-02-21T10:51:01;10.00;99.90
5011;DHT22;2524;54.364;10.072;2024-02-21T10:53:50;9.90;99.90
5011;DHT22;2524;54.364;10.072;2024-02-21T10:58:50;9.90;99.90
5011;DHT22;2524;54.364;10.072;2024-02-21T11:01:17;10.00;99.90
5011;DHT22;2524;54.364;10.072;2024-02-21T11:03:45;9.90;99.90
5011;DHT22;2524;54.364;10.072;2024-02-21T11:06:12;9.90;99.90
5011;DHT22;2524;54.364;10.072;2024-02-21T11:08:39;10.00;99.90
5011;DHT22;2524;54.364;10.072;2024-02-21T11:11:05;10.10;99.90
5011;DHT22;2524;54.364;10.072;2024-02-21T11:13:37;10.00;99.90
5011;DHT22;2524;54.364;10.072;2024-02-21T11:16:07;10.00;99.90
5011;DHT22;2524;54.364;10.072;2024-02-21T11:18:34;10.00;99.90
5011;DHT22;2524;54.364;10.072;2024-02-21T11:21:00;10.10;99.90
5011;DHT22;2524;54.364;10.072;2024-02-21T11:23:26;10.10;99.90
5011;DHT22;2524;54.364;10.072;2024-02-21T11:25:52;10.00;99.90
5011;DHT22;2524;54.364;10.072;2024-02-21T11:28:25;10.00;99.90
5011;DHT22;2524;54.364;10.072;2024-02-21T11:30:51;10.10;99.90
5011;DHT22;2524;54.364;10.072;2024-02-21T11:33:16;10.10;99.90
5011;DHT22;2524;54.364;10.072;2024-02-21T11:35:43;10.20;99.90
5011;DHT22;2524;54.364;10.072;2024-02-21T11:38:12;10.10;99.90
5011;DHT22;2524;54.364;10.072;2024-02-21T11:40:45;10.10;99.90
5011;DHT22;2524;54.364;10.072;2024-02-21T11:43:11;10.10;99.90
5011;DHT22;2524;54.364;10.072;2024-02-21T11:45:36;10.20;99.90
5011;DHT22;2524;54.364;10.072;2024-02-21T11:48:04;10.10;99.90
5011;DHT22;2524;54.364;10.072;2024-02-21T11:50:31;10.10;99.90
5011;DHT22;2524;54.364;10.072;2024-02-21T11:52:57;10.10;99.90
5011;DHT22;2524;54.364;10.072;2024-02-21T11:55:23;10.10;99.90
5011;DHT22;2524;54.364;10.072;2024-02-21T11:57:49;10.10;99.90
5011;DHT22;2524;54.364;10.072;2024-02-21T12:00:19;10.10;99.90
5011;DHT22;2524;54.364;10.072;2024-02-21T12:02:47;10.10;99.90
5011;DHT22;2524;54.364;10.072;2024-02-21T12:05:14;10.00;99.90
5011;DHT22;2524;54.364;10.072;2024-02-21T12:07:40;10.00;99.90
5011;DHT22;2524;54.364;10.072;2024-02-21T12:10:14;10.10;99.90
5011;DHT22;2524;54.364;10.072;2024-02-21T12:12:40;10.00;99.90
5011;DHT22;2524;54.364;10.072;2024-02-21T12:15:07;10.00;99.90
5011;DHT22;2524;54.364;10.072;2024-02-21T12:17:33;10.00;99.90
5011;DHT22;2524;54.364;10.072;2024-02-21T12:20:01;10.10;99.90
5011;DHT22;2524;54.364;10.072;2024-02-21T12:22:26;10.10;99.90
5011;DHT22;2524;54.364;10.072;2024-02-21T12:24:53;10.20;99.90
5011;DHT22;2524;54.364;10.072;2024-02-21T12:27:18;10.30;99.90
5011;DHT22;2524;54.364;10.072;2024-02-21T12:29:44;10.30;99.90
5011;DHT22;2524;54.364;10.072;2024-02-21T12:32:10;10.30;99.90
5011;DHT22;2524;54.364;10.072;2024-02-21T12:34:35;10.30;99.90
5011;DHT22;2524;54.364;10.072;2024-02-21T12:37:02;10.30;99.90
5011;DHT22;2524;54.364;10.072;2024-02-21T12:39:28;10.20;99.90
5011;DHT22;2524;54.364;10.072;2024-02-21T12:41:54;10.20;99.90
5011;DHT22;2524;54.364;10.072;2024-02-21T12:44:21;10.20;99.90
5011;DHT22;2524;54.364;10.072;2024-02-21T12:46:47;10.20;99.90
5011;DHT22;2524;54.364;10.072;2024-02-21T12:49:17;10.20;99.90
5011;DHT22;2524;54.364;10.072;2024-02-21T12:51:43;10.20;99.90
5011;DHT22;2524;54.364;10.072;2024-02-21T12:54:12;10.20;99.90
5011;DHT22;2524;54.364;10.072;2024-02-21T12:56:37;10.30;99.90
5011;DHT22;2524;54.364;10.072;2024-02-21T12:59:03;10.40;99.90
5011;DHT22;2524;54.364;10.072;2024-02-21T13:01:29;10.20;99.90
5011;DHT22;2524;54.364;10.072;2024-02-21T13:03:54;10.40;99.90
5011;DHT22;2524;54.364;10.072;2024-02-21T13:06:21;10.30;99.90
5011;DHT22;2524;54.364;10.072;2024-02-21T13:08:46;10.20;99.90
5011;DHT22;2524;54.364;10.072;2024-02-21T13:11:12;10.20;99.90
5011;DHT22;2524;54.364;10.072;2024-02-21T13:13:38;10.20;99.90
5011;DHT22;2524;54.364;10.072;2024-02-21T13:16:04;10.30;99.90
5011;DHT22;2524;54.364;10.072;2024-02-21T13:18:30;10.20;99.90
5011;DHT22;2524;54.364;10.072;2024-02-21T13:20:57;10.20;99.90
5011;DHT22;2524;54.364;10.072;2024-02-21T13:23:23;10.20;99.90
5011;DHT22;2524;54.364;10.072;2024-02-21T13:25:49;10.30;99.90
5011;DHT22;2524;54.364;10.072;2024-02-21T13:28:15;10.20;99.90
5011;DHT22;2524;54.364;10.072;2024-02-21T13:30:42;10.20;99.90
5011;DHT22;2524;54.364;10.072;2024-02-21T13:33:08;10.20;99.90
5011;DHT22;2524;54.364;10.072;2024-02-21T13:35:36;10.10;99.90
5011;DHT22;2524;54.364;10.072;2024-02-21T13:38:03;10.10;99.90
5011;DHT22;2524;54.364;10.072;2024-02-21T13:40:28;10.10;99.90
5011;DHT22;2524;54.364;10.072;2024-02-21T13:42:54;10.30;99.90
5011;DHT22;2524;54.364;10.072;2024-02-21T13:45:20;10.10;99.90
5011;DHT22;2524;54.364;10.072;2024-02-21T13:47:45;10.00;99.90
5011;DHT22;2524;54.364;10.072;2024-02-21T13:50:11;10.10;99.90
5011;DHT22;2524;54.364;10.072;2024-02-21T13:52:40;10.10;99.90
5011;DHT22;2524;54.364;10.072;2024-02-21T13:55:05;10.00;99.90
5011;DHT22;2524;54.364;10.072;2024-02-21T13:57:34;10.00;99.90
5011;DHT22;2524;54.364;10.072;2024-02-21T14:00:00;9.90;99.90
5011;DHT22;2524;54.364;10.072;2024-02-21T14:02:25;9.90;99.90
5011;DHT22;2524;54.364;10.072;2024-02-21T14:04:51;9.90;99.90
5011;DHT22;2524;54.364;10.072;2024-02-21T14:07:17;9.90;99.90
5011;DHT22;2524;54.364;10.072;2024-02-21T14:09:43;9.90;99.90
5011;DHT22;2524;54.364;10.072;2024-02-21T14:12:08;10.00;99.90
5011;DHT22;2524;54.364;10.072;2024-02-21T14:14:35;10.10;99.90
5011;DHT22;2524;54.364;10.072;2024-02-21T14:17:02;9.90;99.90
5011;DHT22;2524;54.364;10.072;2024-02-21T14:19:29;9.80;99.90
5011;DHT22;2524;54.364;10.072;2024-02-21T14:21:54;9.80;99.90
5011;DHT22;2524;54.364;10.072;2024-02-21T14:24:20;9.90;99.90
5011;DHT22;2524;54.364;10.072;2024-02-21T14:26:45;9.80;99.90
5011;DHT22;2524;54.364;10.072;2024-02-21T14:29:11;9.90;99.90
5011;DHT22;2524;54.364;10.072;2024-02-21T14:31:38;9.90;99.90
5011;DHT22;2524;54.364;10.072;2024-02-21T14:34:03;9.90;99.90
5011;DHT22;2524;54.364;10.072;2024-02-21T14:36:29;10.00;99.90
5011;DHT22;2524;54.364;10.072;2024-02-21T14:38:54;9.90;99.90
5011;DHT22;2524;54.364;10.072;2024-02-21T14:41:20;9.80;99.90
5011;DHT22;2524;54.364;10.072;2024-02-21T14:43:45;9.90;99.90
5011;DHT22;2524;54.364;10.072;2024-02-21T14:46:12;9.90;99.90
5011;DHT22;2524;54.364;10.072;2024-02-21T14:48:38;9.80;99.90
5011;DHT22;2524;54.364;10.072;2024-02-21T14:51:04;9.90;99.90
5011;DHT22;2524;54.364;10.072;2024-02-21T14:53:30;9.80;99.90
5011;DHT22;2524;54.364;10.072;2024-02-21T14:55:58;9.80;99.90
5011;DHT22;2524;54.364;10.072;2024-02-21T14:58:24;9.80;99.90
5011;DHT22;2524;54.364;10.072;2024-02-21T15:00:49;9.80;99.90
5011;DHT22;2524;54.364;10.072;2024-02-21T15:03:18;9.90;99.90
5011;DHT22;2524;54.364;10.072;2024-02-21T15:05:45;9.80;99.90
5011;DHT22;2524;54.364;10.072;2024-02-21T15:08:11;9.90;99.90
5011;DHT22;2524;54.364;10.072;2024-02-21T15:10:37;9.70;99.90
5011;DHT22;2524;54.364;10.072;2024-02-21T15:13:03;9.70;99.90
5011;DHT22;2524;54.364;10.072;2024-02-21T15:15:29;9.70;99.90
5011;DHT22;2524;54.364;10.072;2024-02-21T15:17:54;9.70;99.90
5011;DHT22;2524;54.364;10.072;2024-02-21T15:20:20;9.70;99.90
5011;DHT22;2524;54.364;10.072;2024-02-21T15:22:45;9.70;99.90
5011;DHT22;2524;54.364;10.072;2024-02-21T15:25:11;9.80;99.90
5011;DHT22;2524;54.364;10.072;2024-02-21T15:27:42;9.60;99.90
5011;DHT22;2524;54.364;10.072;2024-02-21T15:30:10;9.70;99.90
5011;DHT22;2524;54.364;10.072;2024-02-21T15:32:37;9.60;99.90
5011;DHT22;2524;54.364;10.072;2024-02-21T15:35:04;9.60;99.90
5011;DHT22;2524;54.364;10.072;2024-02-21T15:37:31;9.60;99.90
5011;DHT22;2524;54.364;10.072;2024-02-21T15:39:57;9.60;99.90
5011;DHT22;2524;54.364;10.072;2024-02-21T15:42:23;9.60;99.90
5011;DHT22;2524;54.364;10.072;2024-02-21T15:44:48;9.60;99.90
5011;DHT22;2524;54.364;10.072;2024-02-21T15:47:14;9.60;99.90
5011;DHT22;2524;54.364;10.072;2024-02-21T15:49:40;9.50;99.90
5011;DHT22;2524;54.364;10.072;2024-02-21T15:52:07;9.50;99.90
5011;DHT22;2524;54.364;10.072;2024-02-21T15:54:32;9.60;99.90
5011;DHT22;2524;54.364;10.072;2024-02-21T15:56:58;9.60;99.90
5011;DHT22;2524;54.364;10.072;2024-02-21T15:59:23;9.50;99.90